sensor_id;sensor_type;location;lat;lon;timestamp;temperature;humidity
37158;DHT22;23050;51.776;22.638;2024-01-27T00:01:32;0.60;99.90
37158;DHT22;23050;51.776;22.638;2024-01-27T00:03:58;0.60;99.90
37158;DHT22;23050;51.776;22.638;2024-01-27T00:06:23;0.60;99.90
37158;DHT22;23050;51.776;22.638;2024-01-27T00:08:49;0.60;99.90
37158;DHT22;23050;51.776;22.638;2024-01-27T00:11:15;0.60;99.90
37158;DHT22;23050;51.776;22.638;2024-01-27T00:13:41;0.60;99.90
37158;DHT22;23050;51.776;22.638;2024-01-27T00:16:06;0.60;99.90
37158;DHT22;23050;51.776;22.638;2024-01-27T00:18:35;0.70;99.90
37158;DHT22;23050;51.776;22.638;2024-01-27T00:21:01;0.70;99.90
37158;DHT22;23050;51.776;22.638;2024-01-27T00:23:26;0.70;99.90
37158;DHT22;23050;51.776;22.638;2024-01-27T00:25:52;0.70;99.90
37158;DHT22;23050;51.776;22.638;2024-01-27T00:28:18;0.70;99.90
37158;DHT22;23050;51.776;22.638;2024-01-27T00:30:43;0.70;99.90
37158;DHT22;23050;51.776;22.638;2024-01-27T00:33:09;0.70;99.90
37158;DHT22;23050;51.776;22.638;2024-01-27T00:35:35;0.70;99.90
37158;DHT22;23050;51.776;22.638;2024-01-27T00:38:00;0.70;99.90
37158;DHT22;23050;51.776;22.638;2024-01-27T00:40:26;0.70;99.90
37158;DHT22;23050;51.776;22.638;2024-01-27T00:42:52;0.70;99.90
37158;DHT22;23050;51.776;22.638;2024-01-27T00:45:17;0.80;99.90
37158;DHT22;23050;51.776;22.638;2024-01-27T00:47:43;0.80;99.90
37158;DHT22;23050;51.776;22.638;2024-01-27T00:50:09;0.80;99.90
37158;DHT22;23050;51.776;22.638;2024-01-27T00:52:35;0.80;99.90
37158;DHT22;23050;51.776;22.638;2024-01-27T00:55:01;0.80;99.90
37158;DHT22;23050;51.776;22.638;2024-01-27T00:57:26;0.80;99.90
37158;DHT22;23050;51.776;22.638;2024-01-27T00:59:52;0.80;99.90
37158;DHT22;23050;51.776;22.638;2024-01-27T01:02:18;0.80;99.90
37158;DHT22;23050;51.776;22.638;2024-01-27T01:04:44;0.80;99.90
37158;DHT22;23050;51.776;22.638;2024-01-27T01:07:10;0.80;99.90
37158;DHT22;23050;51.776;22.638;2024-01-27T01:09:36;0.80;99.90
37158;DHT22;23050;51.776;22.638;2024-01-27T01:12:02;0.80;99.90
37158;DHT22;23050;51.776;22.638;2024-01-27T01:14:27;0.80;99.90
37158;DHT22;23050;51.776;22.638;2024-01-27T01:16:53;0.80;99.90
37158;DHT22;23050;51.776;22.638;2024-01-27T01:19:19;0.80;99.90
37158;DHT22;23050;51.776;22.638;2024-01-27T01:21:45;0.80;99.90
37158;DHT22;23050;51.776;22.638;2024-01-27T01:24:10;0.80;99.90
37158;DHT22;23050;51.776;22.638;2024-01-27T01:26:36;0.80;99.90
37158;DHT22;23050;51.776;22.638;2024-01-27T01:29:02;0.80;99.90
37158;DHT22;23050;51.776;22.638;2024-01-27T01:31:27;0.80;99.90
37158;DHT22;23050;51.776;22.638;2024-01-27T01:33:53;0.80;99.90
37158;DHT22;23050;51.776;22.638;2024-01-27T01:36:19;0.80;99.90
37158;DHT22;23050;51.776;22.638;2024-01-27T01:38:44;0.80;99.90
37158;DHT22;23050;51.776;22.638;2024-01-27T01:41:11;0.80;99.90
37158;DHT22;23050;51.776;22.638;2024-01-27T01:43:37;0.80;99.90
37158;DHT22;23050;51.776;22.638;2024-01-27T01:46:02;0.80;99.90
37158;DHT22;23050;51.776;22.638;2024-01-27T01:48:28;0.80;99.90
37158;DHT22;23050;51.776;22.638;2024-01-27T01:50:55;0.80;99.90
37158;DHT22;23050;51.776;22.638;2024-01-27T01:53:22;0.80;99.90
37158;DHT22;23050;51.776;22.638;2024-01-27T01:55:48;0.80;99.90
37158;DHT22;23050;51.776;22.638;2024-01-27T01:58:15;1.00;99.90
37158;DHT22;23050;51.776;22.638;2024-01-27T02:00:42;1.00;99.90
37158;DHT22;23050;51.776;22.638;2024-01-27T02:03:13;1.10;99.90
37158;DHT22;23050;51.776;22.638;2024-01-27T02:05:40;1.00;99.90
37158;DHT22;23050;51.776;22.638;2024-01-27T02:08:05;1.10;99.90
37158;DHT22;23050;51.776;22.638;2024-01-27T02:10:31;1.20;99.90
37158;DHT22;23050;51.776;22.638;2024-01-27T02:13:03;1.20;99.90
37158;DHT22;23050;51.776;22.638;2024-01-27T02:15:31;1.20;99.90
37158;DHT22;23050;51.776;22.638;2024-01-27T02:17:57;1.40;99.90
37158;DHT22;23050;51.776;22.638;2024-01-27T02:20:22;1.40;99.90
37158;DHT22;23050;51.776;22.638;2024-01-27T02:22:48;1.50;99.90
37158;DHT22;23050;51.776;22.638;2024-01-27T02:25:14;1.50;99.90
37158;DHT22;23050;51.776;22.638;2024-01-27T02:27:39;1.50;99.90
37158;DHT22;23050;51.776;22.638;2024-01-27T02:30:05;1.60;99.90
37158;DHT22;23050;51.776;22.638;2024-01-27T02:32:31;1.60;99.90
37158;DHT22;23050;51.776;22.638;2024-01-27T02:34:57;1.60;99.90
37158;DHT22;23050;51.776;22.638;2024-01-27T02:37:22;1.60;99.90
37158;DHT22;23050;51.776;22.638;2024-01-27T02:39:48;1.70;99.90
37158;DHT22;23050;51.776;22.638;2024-01-27T02:42:13;1.70;99.90
37158;DHT22;23050;51.776;22.638;2024-01-27T02:44:39;1.70;99.90
37158;DHT22;23050;51.776;22.638;2024-01-27T02:47:05;1.80;99.90
37158;DHT22;23050;51.776;22.638;2024-01-27T02:49:30;1.80;99.90
37158;DHT22;23050;51.776;22.638;2024-01-27T02:51:56;1.80;99.90
37158;DHT22;23050;51.776;22.638;2024-01-27T02:54:22;1.80;99.90
37158;DHT22;23050;51.776;22.638;2024-01-27T02:56:47;1.90;99.90
37158;DHT22;23050;51.776;22.638;2024-01-27T02:59:13;1.90;99.90
37158;DHT22;23050;51.776;22.638;2024-01-27T03:01:39;2.00;99.90
37158;DHT22;23050;51.776;22.638;2024-01-27T03:04:05;2.00;99.90
37158;DHT22;23050;51.776;22.638;2024-01-27T03:06:30;2.10;99.90
37158;DHT22;23050;51.776;22.638;2024-01-27T03:08:56;2.10;99.90
37158;DHT22;23050;51.776;22.638;2024-01-27T03:11:22;2.10;99.90
37158;DHT22;23050;51.776;22.638;2024-01-27T03:13:47;2.20;99.90
37158;DHT22;23050;51.776;22.638;2024-01-27T03:16:13;2.20;99.90
37158;DHT22;23050;51.776;22.638;2024-01-27T03:18:39;2.30;99.90
37158;DHT22;23050;51.776;22.638;2024-01-27T03:21:06;2.30;99.90
37158;DHT22;23050;51.776;22.638;2024-01-27T03:23:33;2.30;99.90
37158;DHT22;23050;51.776;22.638;2024-01-27T03:25:59;2.40;99.90
37158;DHT22;23050;51.776;22.638;2024-01-27T03:28:25;2.40;99.90
37158;DHT22;23050;51.776;22.638;2024-01-27T03:30:50;2.30;99.90
37158;DHT22;23050;51.776;22.638;2024-01-27T03:33:16;2.40;99.90
37158;DHT22;23050;51.776;22.638;2024-01-27T03:35:42;2.40;99.90
37158;DHT22;23050;51.776;22.638;2024-01-27T03:38:07;2.40;99.90
37158;DHT22;23050;51.776;22.638;2024-01-27T03:40:33;2.40;99.90
37158;DHT22;23050;51.776;22.638;2024-01-27T03:42:59;2.50;99.90
37158;DHT22;23050;51.776;22.638;2024-01-27T03:45:25;2.50;99.90
37158;DHT22;23050;51.776;22.638;2024-01-27T03:47:50;2.50;99.90
37158;DHT22;23050;51.776;22.638;2024-01-27T03:50:16;2.50;99.90
37158;DHT22;23050;51.776;22.638;2024-01-27T03:52:41;2.50;99.90
37158;DHT22;23050;51.776;22.638;2024-01-27T03:55:07;2.50;99.90
37158;DHT22;23050;51.776;22.638;2024-01-27T03:57:33;2.50;99.90
37158;DHT22;23050;51.776;22.638;2024-01-27T03:59:59;2.50;99.90
37158;DHT22;23050;51.776;22.638;2024-01-27T04:02:24;2.50;99.90
37158;DHT22;23050;51.776;22.638;2024-01-27T04:04:50;2.50;99.90
37158;DHT22;23050;51.776;22.638;2024-01-27T04:07:16;2.60;99.90
37158;DHT22;23050;51.776;22.638;2024-01-27T04:09:41;2.50;99.90
37158;DHT22;23050;51.776;22.638;2024-01-27T04:12:07;2.50;99.90
37158;DHT22;23050;51.776;22.638;2024-01-27T04:14:33;2.50;99.90
37158;DHT22;23050;51.776;22.638;2024-01-27T04:16:59;2.50;99.90
37158;DHT22;23050;51.776;22.638;2024-01-27T04:19:24;2.60;99.90
37158;DHT22;23050;51.776;22.638;2024-01-27T04:21:50;2.60;99.90
37158;DHT22;23050;51.776;22.638;2024-01-27T04:24:16;2.60;99.90
37158;DHT22;23050;51.776;22.638;2024-01-27T04:26:41;2.60;99.90
37158;DHT22;23050;51.776;22.638;2024-01-27T04:29:07;2.60;99.90
37158;DHT22;23050;51.776;22.638;2024-01-27T04:31:33;2.60;99.90
37158;DHT22;23050;51.776;22.638;2024-01-27T04:33:59;2.60;99.90
37158;DHT22;23050;51.776;22.638;2024-01-27T04:36:29;2.60;99.90
37158;DHT22;23050;51.776;22.638;2024-01-27T04:38:55;2.60;99.90
37158;DHT22;23050;51.776;22.638;2024-01-27T04:41:21;2.60;99.90
37158;DHT22;23050;51.776;22.638;2024-01-27T04:43:47;2.60;99.90
37158;DHT22;23050;51.776;22.638;2024-01-27T04:46:12;2.60;99.90
37158;DHT22;23050;51.776;22.638;2024-01-27T04:48:38;2.50;99.90
37158;DHT22;23050;51.776;22.638;2024-01-27T04:51:04;2.50;99.90
37158;DHT22;23050;51.776;22.638;2024-01-27T04:53:29;2.50;99.90
37158;DHT22;23050;51.776;22.638;2024-01-27T04:55:55;2.50;99.90
37158;DHT22;23050;51.776;22.638;2024-01-27T04:58:21;2.50;99.90
37158;DHT22;23050;51.776;22.638;2024-01-27T05:00:46;2.50;99.90
37158;DHT22;23050;51.776;22.638;2024-01-27T05:03:12;2.40;99.90
37158;DHT22;23050;51.776;22.638;2024-01-27T05:05:42;2.50;99.90
37158;DHT22;23050;51.776;22.638;2024-01-27T05:08:09;2.40;99.90
37158;DHT22;23050;51.776;22.638;2024-01-27T05:10:37;2.50;99.90
37158;DHT22;23050;51.776;22.638;2024-01-27T05:13:03;2.50;99.90
37158;DHT22;23050;51.776;22.638;2024-01-27T05:15:29;2.50;99.90
37158;DHT22;23050;51.776;22.638;2024-01-27T05:17:55;2.50;99.90
37158;DHT22;23050;51.776;22.638;2024-01-27T05:20:21;2.60;99.90
37158;DHT22;23050;51.776;22.638;2024-01-27T05:22:47;2.60;99.90
37158;DHT22;23050;51.776;22.638;2024-01-27T05:25:12;2.60;99.90
37158;DHT22;23050;51.776;22.638;2024-01-27T05:27:38;2.70;99.90
37158;DHT22;23050;51.776;22.638;2024-01-27T05:30:05;2.70;99.90
37158;DHT22;23050;51.776;22.638;2024-01-27T05:32:32;2.70;99.90
37158;DHT22;23050;51.776;22.638;2024-01-27T05:34:57;2.70;99.90
37158;DHT22;23050;51.776;22.638;2024-01-27T05:37:23;2.70;99.90
37158;DHT22;23050;51.776;22.638;2024-01-27T05:39:49;2.70;99.90
37158;DHT22;23050;51.776;22.638;2024-01-27T05:42:14;2.70;99.90
37158;DHT22;23050;51.776;22.638;2024-01-27T05:44:40;2.70;99.90
37158;DHT22;23050;51.776;22.638;2024-01-27T05:47:07;2.70;99.90
37158;DHT22;23050;51.776;22.638;2024-01-27T05:49:33;2.70;99.90
37158;DHT22;23050;51.776;22.638;2024-01-27T05:51:59;2.70;99.90
37158;DHT22;23050;51.776;22.638;2024-01-27T05:54:24;2.70;99.90
37158;DHT22;23050;51.776;22.638;2024-01-27T05:56:50;2.70;99.90
37158;DHT22;23050;51.776;22.638;2024-01-27T05:59:16;2.70;99.90
37158;DHT22;23050;51.776;22.638;2024-01-27T06:01:41;2.70;99.90
37158;DHT22;23050;51.776;22.638;2024-01-27T06:04:09;2.70;99.90
37158;DHT22;23050;51.776;22.638;2024-01-27T06:06:38;2.70;99.90
37158;DHT22;23050;51.776;22.638;2024-01-27T06:09:03;2.70;99.90
37158;DHT22;23050;51.776;22.638;2024-01-27T06:11:29;2.70;99.90
37158;DHT22;23050;51.776;22.638;2024-01-27T06:13:55;2.80;99.90
37158;DHT22;23050;51.776;22.638;2024-01-27T06:16:22;2.80;99.90
37158;DHT22;23050;51.776;22.638;2024-01-27T06:18:48;2.80;99.90
37158;DHT22;23050;51.776;22.638;2024-01-27T06:21:14;2.70;99.90
37158;DHT22;23050;51.776;22.638;2024-01-27T06:23:40;2.70;99.90
37158;DHT22;23050;51.776;22.638;2024-01-27T06:26:09;2.80;99.90
37158;DHT22;23050;51.776;22.638;2024-01-27T06:28:38;2.80;99.90
37158;DHT22;23050;51.776;22.638;2024-01-27T06:31:04;2.80;99.90
37158;DHT22;23050;51.776;22.638;2024-01-27T06:33:30;2.80;99.90
37158;DHT22;23050;51.776;22.638;2024-01-27T06:35:56;2.70;99.90
37158;DHT22;23050;51.776;22.638;2024-01-27T06:38:21;2.80;99.90
37158;DHT22;23050;51.776;22.638;2024-01-27T06:40:47;2.80;99.90
37158;DHT22;23050;51.776;22.638;2024-01-27T06:43:13;2.80;99.90
37158;DHT22;23050;51.776;22.638;2024-01-27T06:45:39;2.80;99.90
37158;DHT22;23050;51.776;22.638;2024-01-27T06:48:06;2.80;99.90
37158;DHT22;23050;51.776;22.638;2024-01-27T06:50:32;2.80;99.90
37158;DHT22;23050;51.776;22.638;2024-01-27T06:52:58;2.80;99.90
37158;DHT22;23050;51.776;22.638;2024-01-27T06:55:24;2.90;99.90
37158;DHT22;23050;51.776;22.638;2024-01-27T06:57:50;2.90;99.90
37158;DHT22;23050;51.776;22.638;2024-01-27T07:00:16;2.90;99.90
37158;DHT22;23050;51.776;22.638;2024-01-27T07:02:43;2.90;99.90
37158;DHT22;23050;51.776;22.638;2024-01-27T07:05:09;2.90;99.90
37158;DHT22;23050;51.776;22.638;2024-01-27T07:07:35;2.80;99.90
37158;DHT22;23050;51.776;22.638;2024-01-27T07:10:01;2.90;99.90
37158;DHT22;23050;51.776;22.638;2024-01-27T07:12:27;2.90;99.90
37158;DHT22;23050;51.776;22.638;2024-01-27T07:14:53;2.90;99.90
37158;DHT22;23050;51.776;22.638;2024-01-27T07:17:20;2.90;99.90
37158;DHT22;23050;51.776;22.638;2024-01-27T07:19:46;2.90;99.90
37158;DHT22;23050;51.776;22.638;2024-01-27T07:22:12;2.90;99.90
37158;DHT22;23050;51.776;22.638;2024-01-27T07:24:37;2.90;99.90
37158;DHT22;23050;51.776;22.638;2024-01-27T07:27:03;2.90;99.90
37158;DHT22;23050;51.776;22.638;2024-01-27T07:29:29;2.90;99.90
37158;DHT22;23050;51.776;22.638;2024-01-27T07:31:55;3.00;99.90
37158;DHT22;23050;51.776;22.638;2024-01-27T07:34:21;3.00;99.90
37158;DHT22;23050;51.776;22.638;2024-01-27T07:36:47;3.00;99.90
37158;DHT22;23050;51.776;22.638;2024-01-27T07:39:15;3.10;99.90
37158;DHT22;23050;51.776;22.638;2024-01-27T07:41:41;3.10;99.90
37158;DHT22;23050;51.776;22.638;2024-01-27T07:44:09;3.20;99.90
37158;DHT22;23050;51.776;22.638;2024-01-27T07:46:37;3.20;99.90
37158;DHT22;23050;51.776;22.638;2024-01-27T07:49:02;3.20;99.90
37158;DHT22;23050;51.776;22.638;2024-01-27T07:51:28;3.30;99.90
37158;DHT22;23050;51.776;22.638;2024-01-27T07:53:54;3.30;99.90
37158;DHT22;23050;51.776;22.638;2024-01-27T07:56:20;3.40;99.90
37158;DHT22;23050;51.776;22.638;2024-01-27T07:58:45;3.40;99.90
37158;DHT22;23050;51.776;22.638;2024-01-27T08:01:15;3.30;99.90
37158;DHT22;23050;51.776;22.638;2024-01-27T08:03:41;3.40;99.90
37158;DHT22;23050;51.776;22.638;2024-01-27T08:06:10;3.40;99.90
37158;DHT22;23050;51.776;22.638;2024-01-27T08:08:36;3.40;99.90
37158;DHT22;23050;51.776;22.638;2024-01-27T08:11:02;3.40;99.90
37158;DHT22;23050;51.776;22.638;2024-01-27T08:13:28;3.40;99.90
37158;DHT22;23050;51.776;22.638;2024-01-27T08:15:54;3.40;99.90
37158;DHT22;23050;51.776;22.638;2024-01-27T08:18:19;3.40;99.90
37158;DHT22;23050;51.776;22.638;2024-01-27T08:20:45;3.40;99.90
37158;DHT22;23050;51.776;22.638;2024-01-27T08:23:11;3.40;99.90
37158;DHT22;23050;51.776;22.638;2024-01-27T08:25:36;3.40;99.90
37158;DHT22;23050;51.776;22.638;2024-01-27T08:28:03;3.40;99.90
37158;DHT22;23050;51.776;22.638;2024-01-27T08:30:29;3.40;99.90
37158;DHT22;23050;51.776;22.638;2024-01-27T08:32:55;3.40;99.90
37158;DHT22;23050;51.776;22.638;2024-01-27T08:35:21;3.40;99.90
37158;DHT22;23050;51.776;22.638;2024-01-27T08:37:47;3.40;99.90
37158;DHT22;23050;51.776;22.638;2024-01-27T08:40:13;3.40;99.90
37158;DHT22;23050;51.776;22.638;2024-01-27T08:42:39;3.50;99.90
37158;DHT22;23050;51.776;22.638;2024-01-27T08:45:05;3.50;99.90
37158;DHT22;23050;51.776;22.638;2024-01-27T08:47:32;3.50;99.90
37158;DHT22;23050;51.776;22.638;2024-01-27T08:49:57;3.50;99.90
37158;DHT22;23050;51.776;22.638;2024-01-27T08:52:23;3.50;99.90
37158;DHT22;23050;51.776;22.638;2024-01-27T08:54:49;3.50;99.90
37158;DHT22;23050;51.776;22.638;2024-01-27T08:57:14;3.60;99.90
37158;DHT22;23050;51.776;22.638;2024-01-27T08:59:40;3.50;99.90
37158;DHT22;23050;51.776;22.638;2024-01-27T09:02:06;3.50;99.90
37158;DHT22;23050;51.776;22.638;2024-01-27T09:04:31;3.50;99.90
37158;DHT22;23050;51.776;22.638;2024-01-27T09:06:57;3.50;99.90
37158;DHT22;23050;51.776;22.638;2024-01-27T09:09:23;3.50;99.90
37158;DHT22;23050;51.776;22.638;2024-01-27T09:11:49;3.50;99.90
37158;DHT22;23050;51.776;22.638;2024-01-27T09:14:15;3.50;99.90
37158;DHT22;23050;51.776;22.638;2024-01-27T09:16:41;3.50;99.90
37158;DHT22;23050;51.776;22.638;2024-01-27T09:19:07;3.50;99.90
37158;DHT22;23050;51.776;22.638;2024-01-27T09:21:33;3.50;99.90
37158;DHT22;23050;51.776;22.638;2024-01-27T09:23:59;3.50;99.90
37158;DHT22;23050;51.776;22.638;2024-01-27T09:26:27;3.40;99.90
37158;DHT22;23050;51.776;22.638;2024-01-27T09:28:53;3.50;99.90
37158;DHT22;23050;51.776;22.638;2024-01-27T09:31:24;3.50;99.90
37158;DHT22;23050;51.776;22.638;2024-01-27T09:33:52;3.50;99.90
37158;DHT22;23050;51.776;22.638;2024-01-27T09:36:19;3.50;99.90
37158;DHT22;23050;51.776;22.638;2024-01-27T09:38:46;3.50;99.90
37158;DHT22;23050;51.776;22.638;2024-01-27T09:41:13;3.50;99.90
37158;DHT22;23050;51.776;22.638;2024-01-27T09:43:43;3.50;99.90
37158;DHT22;23050;51.776;22.638;2024-01-27T09:46:11;3.50;99.90
37158;DHT22;23050;51.776;22.638;2024-01-27T09:48:37;3.50;99.90
37158;DHT22;23050;51.776;22.638;2024-01-27T09:51:13;3.50;99.90
37158;DHT22;23050;51.776;22.638;2024-01-27T09:53:42;3.50;99.90
37158;DHT22;23050;51.776;22.638;2024-01-27T09:56:09;3.40;99.90
37158;DHT22;23050;51.776;22.638;2024-01-27T09:58:35;3.40;99.90
37158;DHT22;23050;51.776;22.638;2024-01-27T10:01:01;3.40;99.90
37158;DHT22;23050;51.776;22.638;2024-01-27T10:03:28;3.40;99.90
37158;DHT22;23050;51.776;22.638;2024-01-27T10:05:56;3.40;99.90
37158;DHT22;23050;51.776;22.638;2024-01-27T10:08:22;3.50;99.90
37158;DHT22;23050;51.776;22.638;2024-01-27T10:10:55;3.60;99.90
37158;DHT22;23050;51.776;22.638;2024-01-27T10:13:22;3.60;99.90
37158;DHT22;23050;51.776;22.638;2024-01-27T10:16:01;3.60;99.90
37158;DHT22;23050;51.776;22.638;2024-01-27T10:18:28;3.60;99.90
37158;DHT22;23050;51.776;22.638;2024-01-27T10:20:53;3.70;99.90
37158;DHT22;23050;51.776;22.638;2024-01-27T10:23:19;3.70;99.90
37158;DHT22;23050;51.776;22.638;2024-01-27T10:25:45;3.70;99.90
37158;DHT22;23050;51.776;22.638;2024-01-27T10:28:10;3.80;99.90
37158;DHT22;23050;51.776;22.638;2024-01-27T10:30:36;3.80;99.90
37158;DHT22;23050;51.776;22.638;2024-01-27T10:33:02;3.90;99.90
37158;DHT22;23050;51.776;22.638;2024-01-27T10:35:29;4.00;99.90
37158;DHT22;23050;51.776;22.638;2024-01-27T10:37:55;4.10;99.90
37158;DHT22;23050;51.776;22.638;2024-01-27T10:40:21;4.20;99.90
37158;DHT22;23050;51.776;22.638;2024-01-27T10:43:09;4.30;99.90
37158;DHT22;23050;51.776;22.638;2024-01-27T10:48:03;4.20;99.90
37158;DHT22;23050;51.776;22.638;2024-01-27T10:50:29;4.20;99.90
37158;DHT22;23050;51.776;22.638;2024-01-27T10:52:57;4.20;99.90
37158;DHT22;23050;51.776;22.638;2024-01-27T10:55:24;4.10;99.90
37158;DHT22;23050;51.776;22.638;2024-01-27T10:57:52;4.20;99.90
37158;DHT22;23050;51.776;22.638;2024-01-27T11:00:18;4.20;99.90
37158;DHT22;23050;51.776;22.638;2024-01-27T11:02:44;4.20;99.90
37158;DHT22;23050;51.776;22.638;2024-01-27T11:05:10;4.20;99.90
37158;DHT22;23050;51.776;22.638;2024-01-27T11:07:37;4.20;99.90
37158;DHT22;23050;51.776;22.638;2024-01-27T11:10:03;4.20;99.90
37158;DHT22;23050;51.776;22.638;2024-01-27T11:12:29;4.20;99.90
37158;DHT22;23050;51.776;22.638;2024-01-27T11:14:56;4.30;99.90
37158;DHT22;23050;51.776;22.638;2024-01-27T11:17:24;4.30;99.90
37158;DHT22;23050;51.776;22.638;2024-01-27T11:19:50;4.30;99.90
37158;DHT22;23050;51.776;22.638;2024-01-27T11:22:27;4.30;99.90
37158;DHT22;23050;51.776;22.638;2024-01-27T11:27:36;4.40;99.90
37158;DHT22;23050;51.776;22.638;2024-01-27T11:30:03;4.50;99.90
37158;DHT22;23050;51.776;22.638;2024-01-27T11:32:29;4.50;99.90
37158;DHT22;23050;51.776;22.638;2024-01-27T11:34:55;4.50;99.90
37158;DHT22;23050;51.776;22.638;2024-01-27T11:37:22;4.40;99.90
37158;DHT22;23050;51.776;22.638;2024-01-27T11:39:51;4.40;99.90
37158;DHT22;23050;51.776;22.638;2024-01-27T11:42:20;4.40;99.90
37158;DHT22;23050;51.776;22.638;2024-01-27T11:44:45;4.30;99.90
37158;DHT22;23050;51.776;22.638;2024-01-27T11:47:16;4.20;99.90
37158;DHT22;23050;51.776;22.638;2024-01-27T11:49:53;4.10;99.90
37158;DHT22;23050;51.776;22.638;2024-01-27T11:52:19;4.10;99.90
37158;DHT22;23050;51.776;22.638;2024-01-27T11:54:45;4.10;99.90
37158;DHT22;23050;51.776;22.638;2024-01-27T11:57:10;4.10;99.90
37158;DHT22;23050;51.776;22.638;2024-01-27T11:59:36;4.10;99.90
37158;DHT22;23050;51.776;22.638;2024-01-27T12:02:02;4.20;99.90
37158;DHT22;23050;51.776;22.638;2024-01-27T12:04:29;4.30;99.90
37158;DHT22;23050;51.776;22.638;2024-01-27T12:06:57;4.40;99.90
37158;DHT22;23050;51.776;22.638;2024-01-27T12:09:24;4.40;99.90
37158;DHT22;23050;51.776;22.638;2024-01-27T12:11:49;4.40;99.90
37158;DHT22;23050;51.776;22.638;2024-01-27T12:14:17;4.40;99.90
37158;DHT22;23050;51.776;22.638;2024-01-27T12:16:44;4.40;99.90
37158;DHT22;23050;51.776;22.638;2024-01-27T12:19:10;4.50;99.90
37158;DHT22;23050;51.776;22.638;2024-01-27T12:21:36;4.60;99.90
37158;DHT22;23050;51.776;22.638;2024-01-27T12:24:02;4.60;99.90
37158;DHT22;23050;51.776;22.638;2024-01-27T12:26:29;4.80;99.90
37158;DHT22;23050;51.776;22.638;2024-01-27T12:28:56;4.90;99.90
37158;DHT22;23050;51.776;22.638;2024-01-27T12:31:23;4.80;99.90
37158;DHT22;23050;51.776;22.638;2024-01-27T12:36:17;4.70;99.90
37158;DHT22;23050;51.776;22.638;2024-01-27T12:38:47;4.60;99.90
37158;DHT22;23050;51.776;22.638;2024-01-27T12:41:12;4.50;99.90
37158;DHT22;23050;51.776;22.638;2024-01-27T12:43:38;4.50;99.90
37158;DHT22;23050;51.776;22.638;2024-01-27T12:46:04;4.50;99.90
37158;DHT22;23050;51.776;22.638;2024-01-27T12:48:30;4.30;99.90
37158;DHT22;23050;51.776;22.638;2024-01-27T12:50:56;4.40;99.90
37158;DHT22;23050;51.776;22.638;2024-01-27T12:53:22;4.40;99.90
37158;DHT22;23050;51.776;22.638;2024-01-27T12:55:47;4.30;99.90
37158;DHT22;23050;51.776;22.638;2024-01-27T12:58:13;4.30;99.90
37158;DHT22;23050;51.776;22.638;2024-01-27T13:00:39;4.30;99.90
37158;DHT22;23050;51.776;22.638;2024-01-27T13:03:04;4.30;99.90
37158;DHT22;23050;51.776;22.638;2024-01-27T13:05:30;4.30;99.90
37158;DHT22;23050;51.776;22.638;2024-01-27T13:07:56;4.30;99.90
37158;DHT22;23050;51.776;22.638;2024-01-27T13:10:21;4.30;99.90
37158;DHT22;23050;51.776;22.638;2024-01-27T13:12:48;4.20;99.90
37158;DHT22;23050;51.776;22.638;2024-01-27T13:15:14;4.20;99.90
37158;DHT22;23050;51.776;22.638;2024-01-27T13:17:39;4.20;99.90
37158;DHT22;23050;51.776;22.638;2024-01-27T13:20:07;4.20;99.90
37158;DHT22;23050;51.776;22.638;2024-01-27T13:22:33;4.20;99.90
37158;DHT22;23050;51.776;22.638;2024-01-27T13:24:58;4.20;99.90
37158;DHT22;23050;51.776;22.638;2024-01-27T13:27:27;4.20;99.90
37158;DHT22;23050;51.776;22.638;2024-01-27T13:29:52;4.30;99.90
37158;DHT22;23050;51.776;22.638;2024-01-27T13:32:18;4.30;99.90
37158;DHT22;23050;51.776;22.638;2024-01-27T13:34:45;4.30;99.90
37158;DHT22;23050;51.776;22.638;2024-01-27T13:37:10;4.30;99.90
37158;DHT22;23050;51.776;22.638;2024-01-27T13:39:36;4.30;99.90
37158;DHT22;23050;51.776;22.638;2024-01-27T13:42:02;4.40;99.90
37158;DHT22;23050;51.776;22.638;2024-01-27T13:44:28;4.40;99.90
37158;DHT22;23050;51.776;22.638;2024-01-27T13:46:55;4.40;99.90
37158;DHT22;23050;51.776;22.638;2024-01-27T13:49:26;4.40;99.90
37158;DHT22;23050;51.776;22.638;2024-01-27T13:51:51;4.50;99.90
37158;DHT22;23050;51.776;22.638;2024-01-27T13:54:17;4.50;99.90
37158;DHT22;23050;51.776;22.638;2024-01-27T13:56:42;4.50;99.90
37158;DHT22;23050;51.776;22.638;2024-01-27T13:59:08;4.30;99.90
37158;DHT22;23050;51.776;22.638;2024-01-27T14:01:34;4.10;99.90
37158;DHT22;23050;51.776;22.638;2024-01-27T14:04:00;3.90;99.90
37158;DHT22;23050;51.776;22.638;2024-01-27T14:06:25;3.70;99.90
37158;DHT22;23050;51.776;22.638;2024-01-27T14:08:51;3.70;99.90
37158;DHT22;23050;51.776;22.638;2024-01-27T14:11:17;3.70;99.90
37158;DHT22;23050;51.776;22.638;2024-01-27T14:13:44;3.60;99.90
37158;DHT22;23050;51.776;22.638;2024-01-27T14:16:10;3.60;99.90
37158;DHT22;23050;51.776;22.638;2024-01-27T14:18:36;3.60;99.90
37158;DHT22;23050;51.776;22.638;2024-01-27T14:21:01;3.60;99.90
37158;DHT22;23050;51.776;22.638;2024-01-27T14:23:27;3.60;99.90
37158;DHT22;23050;51.776;22.638;2024-01-27T14:25:54;3.50;99.90
37158;DHT22;23050;51.776;22.638;2024-01-27T14:28:19;3.50;99.90
37158;DHT22;23050;51.776;22.638;2024-01-27T14:30:45;3.50;99.90
37158;DHT22;23050;51.776;22.638;2024-01-27T14:33:11;3.50;99.90
37158;DHT22;23050;51.776;22.638;2024-01-27T14:35:37;3.50;99.90
37158;DHT22;23050;51.776;22.638;2024-01-27T14:38:03;3.40;99.90
37158;DHT22;23050;51.776;22.638;2024-01-27T14:40:30;3.50;99.90
37158;DHT22;23050;51.776;22.638;2024-01-27T14:42:57;3.50;99.90
37158;DHT22;23050;51.776;22.638;2024-01-27T14:45:23;3.50;99.90
37158;DHT22;23050;51.776;22.638;2024-01-27T14:47:49;3.40;99.90
37158;DHT22;23050;51.776;22.638;2024-01-27T14:50:14;3.40;99.90
37158;DHT22;23050;51.776;22.638;2024-01-27T14:52:40;3.50;99.90
37158;DHT22;23050;51.776;22.638;2024-01-27T14:55:07;3.50;99.90
37158;DHT22;23050;51.776;22.638;2024-01-27T14:57:36;3.40;99.90
37158;DHT22;23050;51.776;22.638;2024-01-27T15:00:03;3.40;99.90
37158;DHT22;23050;51.776;22.638;2024-01-27T15:02:31;3.40;99.90
37158;DHT22;23050;51.776;22.638;2024-01-27T15:04:57;3.40;99.90
37158;DHT22;23050;51.776;22.638;2024-01-27T15:07:22;3.40;99.90
37158;DHT22;23050;51.776;22.638;2024-01-27T15:09:53;3.40;99.90
37158;DHT22;23050;51.776;22.638;2024-01-27T15:12:18;3.30;99.90
37158;DHT22;23050;51.776;22.638;2024-01-27T15:14:44;3.30;99.90
37158;DHT22;23050;51.776;22.638;2024-01-27T15:17:10;3.30;99.90
37158;DHT22;23050;51.776;22.638;2024-01-27T15:19:35;3.30;99.90
37158;DHT22;23050;51.776;22.638;2024-01-27T15:22:01;3.30;99.90
37158;DHT22;23050;51.776;22.638;2024-01-27T15:24:27;3.20;99.90
37158;DHT22;23050;51.776;22.638;2024-01-27T15:26:52;3.20;99.90
37158;DHT22;23050;51.776;22.638;2024-01-27T15:29:18;3.20;99.90
37158;DHT22;23050;51.776;22.638;2024-01-27T15:31:44;3.20;99.90